Time;durP1;ratioP1;P1;durP2;ratioP2;P2;SDS_P1;SDS_P2;PMS_P1;PMS_P2;Temp;Humidity;BMP_temperature;BMP_pressure;BME280_temperature;BME280_humidity;BME280_pressure;Samples;Min_cycle;Max_cycle;Signal;HPM_P1;HPM_P2
2022/01/28 00:01:53;;;;;;;7.72;1.42;;;;;;;;;;5021565;28;20143;-75
2022/01/28 00:04:19;;;;;;;6.40;1.73;;;;;;;;;;5040709;28;20457;-78
2022/01/28 00:06:45;;;;;;;8.57;1.40;;;;;;;;;;5040881;28;20034;-77
2022/01/28 00:09:11;;;;;;;5.50;2.05;;;;;;;;;;5022340;28;20041;-76
2022/01/28 00:11:37;;;;;;;10.10;2.22;;;;;;;;;;5027461;28;20041;-77
2022/01/28 00:14:31;;;;;;;16.05;2.22;;;;;;;;;;5029134;28;20033;-79
2022/01/28 00:38:31;;;;;;;12.40;2.00;;;;;;;;;;5047921;28;20033;-77
2022/01/28 00:40:57;;;;;;;8.02;1.95;;;;;;;;;;5041488;28;20552;-75
2022/01/28 00:43:22;;;;;;;9.85;1.15;;;;;;;;;;5042006;28;20084;-76
2022/01/28 00:45:48;;;;;;;4.60;0.93;;;;;;;;;;5042668;28;20044;-77
2022/01/28 00:48:14;;;;;;;7.20;1.70;;;;;;;;;;5028678;28;20377;-75
2022/01/28 00:50:42;;;;;;;10.38;1.92;;;;;;;;;;5042435;28;20040;-76
2022/01/28 00:53:08;;;;;;;11.02;1.70;;;;;;;;;;5044019;28;20041;-77
2022/01/28 00:55:34;;;;;;;10.65;1.75;;;;;;;;;;5028109;28;20040;-76
2022/01/28 00:58:00;;;;;;;10.02;1.38;;;;;;;;;;5028695;28;20485;-79
2022/01/28 01:00:26;;;;;;;10.23;1.20;;;;;;;;;;5045452;28;20095;-78
2022/01/28 01:02:52;;;;;;;5.47;1.20;;;;;;;;;;5025922;28;20080;-79
2022/01/28 01:05:18;;;;;;;4.72;1.95;;;;;;;;;;5045839;28;20046;-76
2022/01/28 01:07:44;;;;;;;7.72;1.27;;;;;;;;;;5028772;28;20033;-79
2022/01/28 01:10:10;;;;;;;5.78;1.67;;;;;;;;;;5045523;28;20064;-80
2022/01/28 01:12:42;;;;;;;7.68;1.65;;;;;;;;;;5043691;28;20068;-79
2022/01/28 01:15:09;;;;;;;14.32;2.63;;;;;;;;;;5030372;28;20378;-81
2022/01/28 01:17:41;;;;;;;9.70;1.73;;;;;;;;;;5043373;28;20086;-79
2022/01/28 01:20:20;;;;;;;10.23;2.30;;;;;;;;;;5029180;28;20041;-77
2022/01/28 01:22:54;;;;;;;16.27;2.22;;;;;;;;;;5043297;28;20042;-78
2022/01/28 01:25:27;;;;;;;15.55;2.72;;;;;;;;;;5042767;28;20045;-78
2022/01/28 01:27:55;;;;;;;5.88;2.10;;;;;;;;;;5030413;28;20044;-75
2022/01/28 01:30:22;;;;;;;9.88;1.85;;;;;;;;;;5031632;28;20047;-76
2022/01/28 01:32:48;;;;;;;11.05;2.70;;;;;;;;;;5041937;28;20045;-76
2022/01/28 01:35:14;;;;;;;11.38;2.28;;;;;;;;;;5030804;28;20041;-74
2022/01/28 01:37:40;;;;;;;6.20;1.73;;;;;;;;;;5031613;28;20048;-75
2022/01/28 01:40:07;;;;;;;8.95;2.22;;;;;;;;;;5028253;28;20040;-77
2022/01/28 01:53:07;;;;;;;10.40;1.90;;;;;;;;;;5043870;28;20069;-80
2022/01/28 01:55:33;;;;;;;10.77;2.83;;;;;;;;;;5028376;28;20424;-76
2022/01/28 01:57:59;;;;;;;11.93;2.15;;;;;;;;;;5026537;28;20037;-81
2022/01/28 02:00:25;;;;;;;13.10;2.42;;;;;;;;;;5052614;28;20125;-78
2022/01/28 02:02:52;;;;;;;11.50;2.13;;;;;;;;;;5036771;28;20103;-79
2022/01/28 02:05:18;;;;;;;12.48;2.53;;;;;;;;;;5053065;28;20488;-74
2022/01/28 02:07:45;;;;;;;15.15;1.98;;;;;;;;;;5036341;28;20049;-77
2022/01/28 02:10:11;;;;;;;19.05;2.75;;;;;;;;;;5036491;28;20051;-80
2022/01/28 02:12:46;;;;;;;15.98;2.25;;;;;;;;;;5052693;28;20396;-79
2022/01/28 02:15:12;;;;;;;11.90;2.08;;;;;;;;;;5052751;28;20039;-76
2022/01/28 02:17:38;;;;;;;15.82;2.03;;;;;;;;;;5053105;28;20048;-79
2022/01/28 02:20:07;;;;;;;6.93;2.13;;;;;;;;;;5051664;28;20102;-75
2022/01/28 02:22:35;;;;;;;4.78;1.33;;;;;;;;;;5052205;28;20098;-75
2022/01/28 02:25:01;;;;;;;14.95;3.05;;;;;;;;;;5052611;28;20045;-78
2022/01/28 02:27:27;;;;;;;14.38;3.03;;;;;;;;;;5052766;28;20512;-76
2022/01/28 02:29:55;;;;;;;16.73;3.00;;;;;;;;;;5035276;28;20380;-74
2022/01/28 02:32:21;;;;;;;13.93;3.28;;;;;;;;;;5035139;28;20175;-75
2022/01/28 02:34:47;;;;;;;14.98;3.13;;;;;;;;;;5052031;28;20459;-79
2022/01/28 02:37:13;;;;;;;12.75;3.05;;;;;;;;;;5052569;28;20033;-79
2022/01/28 02:39:39;;;;;;;6.80;2.13;;;;;;;;;;5037068;28;20087;-78
2022/01/28 02:42:26;;;;;;;18.35;3.92;;;;;;;;;;5035772;28;20037;-75
2022/01/28 02:44:55;;;;;;;16.95;2.58;;;;;;;;;;5052499;28;20130;-81
2022/01/28 02:47:37;;;;;;;15.48;2.10;;;;;;;;;;5035829;28;20496;-78
2022/01/28 02:50:06;;;;;;;11.13;2.38;;;;;;;;;;5035873;28;20037;-76
2022/01/28 02:52:50;;;;;;;12.15;1.80;;;;;;;;;;5051981;28;20452;-80
2022/01/28 02:55:16;;;;;;;10.70;1.95;;;;;;;;;;5035321;28;20123;-76
2022/01/28 02:57:52;;;;;;;9.27;1.60;;;;;;;;;;5032466;28;20544;-75
2022/01/28 03:00:18;;;;;;;11.75;2.83;;;;;;;;;;5050744;28;20408;-76
2022/01/28 03:02:44;;;;;;;7.90;2.13;;;;;;;;;;5050310;28;20427;-76
2022/01/28 03:05:30;;;;;;;22.25;3.28;;;;;;;;;;5035271;28;20049;-75
2022/01/28 03:07:57;;;;;;;11.18;1.58;;;;;;;;;;5051484;28;20041;-77
2022/01/28 03:10:31;;;;;;;13.13;2.15;;;;;;;;;;5036484;28;20511;-77
2022/01/28 03:13:17;;;;;;;11.15;2.65;;;;;;;;;;5052334;28;20044;-78
2022/01/28 03:15:50;;;;;;;18.33;3.45;;;;;;;;;;5035720;28;20411;-81
2022/01/28 03:18:21;;;;;;;13.45;3.22;;;;;;;;;;5035989;28;20033;-80
2022/01/28 03:23:19;;;;;;;14.85;2.92;;;;;;;;;;5051387;28;20052;-82
2022/01/28 03:25:46;;;;;;;17.38;2.95;;;;;;;;;;5036420;28;20563;-76
2022/01/28 03:28:14;;;;;;;17.85;2.47;;;;;;;;;;5034851;28;20508;-74
2022/01/28 03:30:40;;;;;;;14.57;2.97;;;;;;;;;;5035078;28;20123;-77
2022/01/28 03:33:06;;;;;;;11.00;2.50;;;;;;;;;;5034744;28;20132;-77
2022/01/28 03:35:34;;;;;;;15.15;2.38;;;;;;;;;;5051478;28;20076;-75
2022/01/28 03:38:01;;;;;;;20.45;3.20;;;;;;;;;;5052127;28;20072;-81
2022/01/28 03:40:28;;;;;;;19.02;2.42;;;;;;;;;;5035714;28;20094;-75
2022/01/28 03:42:54;;;;;;;11.80;2.63;;;;;;;;;;5034994;28;20497;-80
2022/01/28 03:45:20;;;;;;;8.57;1.40;;;;;;;;;;5038097;28;20041;-81
2022/01/28 03:47:46;;;;;;;14.40;2.05;;;;;;;;;;5040019;28;20198;-77
2022/01/28 03:50:12;;;;;;;8.55;1.60;;;;;;;;;;5056239;28;20083;-78
2022/01/28 03:52:38;;;;;;;11.77;2.20;;;;;;;;;;5039989;28;20485;-78
2022/01/28 03:55:04;;;;;;;12.50;3.47;;;;;;;;;;5038705;28;20096;-80
2022/01/28 03:57:30;;;;;;;14.00;3.85;;;;;;;;;;5039061;28;20072;-82
2022/01/28 03:59:56;;;;;;;8.45;1.73;;;;;;;;;;5038150;28;20037;-76
2022/01/28 04:02:27;;;;;;;9.50;2.13;;;;;;;;;;5039975;28;20466;-77
2022/01/28 04:12:52;;;;;;;9.93;2.25;;;;;;;;;;5055236;28;20417;-79
2022/01/28 04:15:47;;;;;;;13.52;2.30;;;;;;;;;;5038264;28;20551;-80
2022/01/28 04:18:07;;;;;;;12.10;2.13;;;;;;;;;;5053832;28;20091;-79
2022/01/28 04:20:33;;;;;;;14.90;2.28;;;;;;;;;;5054832;28;20041;-77
2022/01/28 04:22:59;;;;;;;13.43;2.45;;;;;;;;;;5055500;28;20032;-79
2022/01/28 04:25:25;;;;;;;8.40;1.85;;;;;;;;;;5038171;28;20044;-77
2022/01/28 04:27:51;;;;;;;16.17;2.97;;;;;;;;;;5039098;28;20128;-76
2022/01/28 04:30:17;;;;;;;13.23;2.80;;;;;;;;;;5040155;28;20060;-79
2022/01/28 04:32:46;;;;;;;10.30;2.22;;;;;;;;;;5038597;28;20116;-80
2022/01/28 04:35:12;;;;;;;13.25;2.53;;;;;;;;;;5055341;28;20041;-76
2022/01/28 04:37:57;;;;;;;14.18;2.80;;;;;;;;;;5038923;28;20079;-77
2022/01/28 04:40:28;;;;;;;11.75;1.90;;;;;;;;;;5054990;28;20489;-81
2022/01/28 04:48:20;;;;;;;7.47;1.73;;;;;;;;;;5054539;28;20052;-80
2022/01/28 04:51:00;;;;;;;;;;;;;;;;;;5037893;28;20114;-77
2022/01/28 04:53:53;;;;;;;10.82;2.50;;;;;;;;;;5038525;28;19924;-75
2022/01/28 04:59:16;;;;;;;10.20;2.92;;;;;;;;;;5055186;28;20052;-81
2022/01/28 05:05:03;;;;;;;11.73;2.28;;;;;;;;;;5039168;28;20048;-78
2022/01/28 05:08:02;;;;;;;6.53;1.35;;;;;;;;;;5054948;28;20456;-78
2022/01/28 05:11:14;;;;;;;9.23;2.08;;;;;;;;;;5147270;27;20436;-74
2022/01/28 05:24:34;;;;;;;7.25;1.40;;;;;;;;;;5112599;28;20574;-76
2022/01/28 05:29:24;;;;;;;18.52;2.63;;;;;;;;;;5112282;28;20204;-76
2022/01/28 05:31:50;;;;;;;17.48;2.80;;;;;;;;;;5112473;28;20044;-77
2022/01/28 05:34:17;;;;;;;13.38;2.70;;;;;;;;;;5112278;28;20100;-75
2022/01/28 05:36:43;;;;;;;23.58;3.35;;;;;;;;;;5129711;28;20046;-75
2022/01/28 05:39:09;;;;;;;12.68;2.70;;;;;;;;;;5111908;28;20135;-75
2022/01/28 05:41:35;;;;;;;17.35;3.60;;;;;;;;;;5111879;28;20067;-76
2022/01/28 05:44:02;;;;;;;16.13;2.97;;;;;;;;;;5128622;28;20104;-75
2022/01/28 05:46:29;;;;;;;14.55;2.83;;;;;;;;;;5111782;28;20047;-75
2022/01/28 05:48:56;;;;;;;20.00;2.60;;;;;;;;;;5111306;28;20130;-75
2022/01/28 05:51:22;;;;;;;20.63;2.80;;;;;;;;;;5111113;28;20039;-76
2022/01/28 05:53:48;;;;;;;18.83;3.97;;;;;;;;;;5111193;28;20452;-77
2022/01/28 05:56:14;;;;;;;14.63;2.75;;;;;;;;;;5111548;28;20212;-75
2022/01/28 05:58:40;;;;;;;12.35;2.28;;;;;;;;;;5110872;28;20039;-75
2022/01/28 06:01:06;;;;;;;8.43;1.88;;;;;;;;;;5111214;28;20443;-76
2022/01/28 06:03:32;;;;;;;21.73;3.40;;;;;;;;;;5128503;28;20046;-75
2022/01/28 06:05:58;;;;;;;8.40;1.85;;;;;;;;;;5128272;28;20084;-75
2022/01/28 06:08:24;;;;;;;11.45;1.95;;;;;;;;;;5110836;28;20039;-74
2022/01/28 06:10:50;;;;;;;12.00;2.65;;;;;;;;;;5111180;28;20040;-75
2022/01/28 06:13:16;;;;;;;10.88;3.00;;;;;;;;;;5111487;28;20046;-74
2022/01/28 06:15:44;;;;;;;15.23;2.83;;;;;;;;;;5128746;28;20425;-76
2022/01/28 06:18:11;;;;;;;11.65;2.58;;;;;;;;;;5127852;28;20041;-74
2022/01/28 06:20:37;;;;;;;11.60;2.90;;;;;;;;;;5105058;28;20043;-73
2022/01/28 06:23:03;;;;;;;13.43;1.70;;;;;;;;;;5097482;28;20094;-80
2022/01/28 06:25:29;;;;;;;16.15;3.33;;;;;;;;;;5115058;28;20139;-78
2022/01/28 06:27:55;;;;;;;15.75;1.95;;;;;;;;;;5097142;28;20479;-79
2022/01/28 06:30:22;;;;;;;15.32;2.72;;;;;;;;;;5114384;28;20075;-79
2022/01/28 06:32:48;;;;;;;10.70;2.03;;;;;;;;;;5097386;28;20067;-76
2022/01/28 06:35:14;;;;;;;10.30;3.38;;;;;;;;;;5114570;28;20404;-75
2022/01/28 06:37:41;;;;;;;13.98;2.10;;;;;;;;;;5113970;28;20032;-74
2022/01/28 06:40:08;;;;;;;12.90;2.25;;;;;;;;;;5096810;28;20032;-75
2022/01/28 06:42:34;;;;;;;12.23;2.17;;;;;;;;;;5097061;28;20055;-76
2022/01/28 06:45:00;;;;;;;17.63;3.38;;;;;;;;;;5097596;28;20042;-75
2022/01/28 06:47:26;;;;;;;12.82;3.33;;;;;;;;;;5114354;28;20048;-75
2022/01/28 06:49:53;;;;;;;14.25;3.22;;;;;;;;;;5097327;28;20040;-74
2022/01/28 06:52:19;;;;;;;16.48;2.53;;;;;;;;;;5113535;28;20717;-75
2022/01/28 06:54:45;;;;;;;7.78;1.80;;;;;;;;;;5096074;28;20559;-75
2022/01/28 06:57:11;;;;;;;5.30;1.48;;;;;;;;;;5096076;28;20035;-75
2022/01/28 06:59:37;;;;;;;19.98;2.03;;;;;;;;;;5096511;28;20187;-73
2022/01/28 07:02:03;;;;;;;12.00;3.17;;;;;;;;;;5114005;28;20039;-73
2022/01/28 07:04:29;;;;;;;13.43;1.67;;;;;;;;;;5097483;28;20047;-73
2022/01/28 07:06:55;;;;;;;13.35;2.70;;;;;;;;;;5113795;28;20605;-73
2022/01/28 07:09:21;;;;;;;12.30;2.10;;;;;;;;;;5093665;28;20048;-73
2022/01/28 07:11:47;;;;;;;12.23;2.38;;;;;;;;;;5108996;28;20042;-74
2022/01/28 07:14:13;;;;;;;12.82;2.22;;;;;;;;;;5089576;28;20039;-74
2022/01/28 07:16:39;;;;;;;16.33;2.08;;;;;;;;;;5092028;28;20104;-74
2022/01/28 07:19:05;;;;;;;16.63;1.75;;;;;;;;;;5108441;28;20051;-75
2022/01/28 07:21:31;;;;;;;18.77;2.75;;;;;;;;;;5091558;28;20161;-73
2022/01/28 07:23:57;;;;;;;13.50;2.88;;;;;;;;;;5109465;28;20130;-74
2022/01/28 07:26:23;;;;;;;15.10;2.50;;;;;;;;;;5108547;28;20040;-74
2022/01/28 07:28:49;;;;;;;10.35;2.47;;;;;;;;;;5091523;28;20471;-74
2022/01/28 07:31:18;;;;;;;24.33;2.95;;;;;;;;;;5108639;28;20040;-74
2022/01/28 07:33:44;;;;;;;16.52;3.05;;;;;;;;;;5090588;28;20042;-74
2022/01/28 07:36:10;;;;;;;7.70;2.35;;;;;;;;;;5108787;28;20502;-75
2022/01/28 07:38:36;;;;;;;11.88;2.58;;;;;;;;;;5108220;28;20043;-75
2022/01/28 07:41:02;;;;;;;8.38;2.38;;;;;;;;;;5091409;28;20051;-75
2022/01/28 07:43:28;;;;;;;21.05;2.42;;;;;;;;;;5108529;28;20380;-75
2022/01/28 07:45:54;;;;;;;14.68;2.83;;;;;;;;;;5091718;28;20054;-74
2022/01/28 07:48:20;;;;;;;16.13;2.88;;;;;;;;;;5108185;28;20039;-74
2022/01/28 07:50:46;;;;;;;12.10;2.08;;;;;;;;;;5091060;28;20049;-74
2022/01/28 07:53:16;;;;;;;11.73;1.88;;;;;;;;;;5108160;28;20046;-74
2022/01/28 07:55:43;;;;;;;14.52;2.95;;;;;;;;;;5108181;28;20053;-74
2022/01/28 07:58:09;;;;;;;11.25;2.15;;;;;;;;;;5091226;28;20084;-74
2022/01/28 08:00:35;;;;;;;12.80;2.25;;;;;;;;;;5108352;28;20047;-74
2022/01/28 08:03:01;;;;;;;15.15;3.42;;;;;;;;;;5090964;28;20043;-73
2022/01/28 08:05:27;;;;;;;15.10;2.25;;;;;;;;;;5108093;28;20043;-74
2022/01/28 08:07:53;;;;;;;18.15;2.00;;;;;;;;;;5108058;28;20476;-74
2022/01/28 08:10:19;;;;;;;11.45;1.67;;;;;;;;;;5110914;28;20169;-74
2022/01/28 08:12:46;;;;;;;15.70;2.47;;;;;;;;;;5111744;28;20032;-75
2022/01/28 08:15:12;;;;;;;13.73;2.40;;;;;;;;;;5111319;28;20036;-75
2022/01/28 08:17:38;;;;;;;14.55;2.28;;;;;;;;;;5094423;28;20043;-76
2022/01/28 08:20:04;;;;;;;18.05;3.72;;;;;;;;;;5111480;28;20104;-74
2022/01/28 08:22:30;;;;;;;20.70;2.47;;;;;;;;;;5111050;28;20130;-73
2022/01/28 08:24:56;;;;;;;12.32;2.28;;;;;;;;;;5094440;28;20538;-73
2022/01/28 08:27:22;;;;;;;14.23;2.72;;;;;;;;;;5111068;28;20110;-73
2022/01/28 08:29:48;;;;;;;17.50;2.40;;;;;;;;;;5110983;28;20044;-74
2022/01/28 08:32:14;;;;;;;13.63;2.13;;;;;;;;;;5111282;28;20035;-74
2022/01/28 08:34:40;;;;;;;12.80;2.35;;;;;;;;;;5110268;28;20044;-72
2022/01/28 08:37:06;;;;;;;12.90;2.58;;;;;;;;;;5110601;28;20059;-74
2022/01/28 08:39:34;;;;;;;16.85;2.65;;;;;;;;;;5110713;28;20040;-74
2022/01/28 08:42:00;;;;;;;6.97;1.77;;;;;;;;;;5093188;28;20035;-74
2022/01/28 08:44:27;;;;;;;10.57;2.00;;;;;;;;;;5093263;28;20036;-74
2022/01/28 08:46:53;;;;;;;23.98;3.33;;;;;;;;;;5110302;28;20086;-73
2022/01/28 08:49:19;;;;;;;13.52;2.33;;;;;;;;;;5110570;28;20502;-73
2022/01/28 08:51:45;;;;;;;23.63;4.82;;;;;;;;;;5110581;28;20027;-76
2022/01/28 08:54:11;;;;;;;9.75;2.17;;;;;;;;;;5093441;28;20172;-74
2022/01/28 08:56:37;;;;;;;17.02;3.15;;;;;;;;;;5093266;28;20491;-74
2022/01/28 08:59:03;;;;;;;18.23;3.03;;;;;;;;;;5110351;28;20032;-74
2022/01/28 09:01:30;;;;;;;9.60;1.65;;;;;;;;;;5110231;28;20035;-75
2022/01/28 09:03:56;;;;;;;15.13;2.63;;;;;;;;;;5093394;28;20050;-74
2022/01/28 09:06:22;;;;;;;14.20;3.28;;;;;;;;;;5110730;28;20085;-73
2022/01/28 09:08:49;;;;;;;15.15;3.00;;;;;;;;;;5093144;28;20051;-76
2022/01/28 09:13:47;;;;;;;19.00;3.63;;;;;;;;;;5110393;28;20039;-74
2022/01/28 09:16:13;;;;;;;14.38;2.78;;;;;;;;;;5110094;28;20108;-75
2022/01/28 09:18:39;;;;;;;13.98;2.35;;;;;;;;;;5109988;28;20035;-79
2022/01/28 09:21:05;;;;;;;12.40;2.08;;;;;;;;;;5109961;28;20122;-75
2022/01/28 09:23:31;;;;;;;8.93;2.58;;;;;;;;;;5093271;28;20130;-76
2022/01/28 09:25:57;;;;;;;11.30;1.80;;;;;;;;;;5093277;28;20487;-75
2022/01/28 09:28:23;;;;;;;8.57;1.48;;;;;;;;;;5092907;28;20038;-74
2022/01/28 09:30:49;;;;;;;12.73;2.55;;;;;;;;;;5110017;28;20490;-75
2022/01/28 09:33:15;;;;;;;14.95;1.80;;;;;;;;;;5093157;28;20028;-76
2022/01/28 09:35:41;;;;;;;10.95;2.30;;;;;;;;;;5110125;28;20036;-75
2022/01/28 09:38:08;;;;;;;15.65;2.92;;;;;;;;;;5092935;28;20043;-76
2022/01/28 09:40:34;;;;;;;10.70;2.30;;;;;;;;;;5092859;28;20032;-77
2022/01/28 09:43:01;;;;;;;11.18;2.15;;;;;;;;;;5092829;28;20090;-76
2022/01/28 09:45:27;;;;;;;14.55;2.85;;;;;;;;;;5092948;28;20032;-75
2022/01/28 09:47:56;;;;;;;11.90;2.40;;;;;;;;;;5092728;28;20036;-75
2022/01/28 09:50:22;;;;;;;14.73;1.92;;;;;;;;;;5107275;28;20050;-75
2022/01/28 09:52:50;;;;;;;13.30;3.05;;;;;;;;;;5110139;28;20487;-75
2022/01/28 09:55:16;;;;;;;16.15;2.92;;;;;;;;;;5092840;28;20067;-74
2022/01/28 09:57:42;;;;;;;21.42;2.40;;;;;;;;;;5096592;28;20488;-74
2022/01/28 10:00:10;;;;;;;12.30;2.00;;;;;;;;;;5113208;28;20477;-75
2022/01/28 10:02:49;;;;;;;9.60;1.75;;;;;;;;;;5113561;28;20122;-75
2022/01/28 10:05:32;;;;;;;13.23;2.53;;;;;;;;;;5110975;28;20042;-76
2022/01/28 10:08:08;;;;;;;12.88;2.72;;;;;;;;;;5111654;28;20039;-75
2022/01/28 10:10:47;;;;;;;12.07;1.75;;;;;;;;;;5096556;28;20131;-74
2022/01/28 10:13:17;;;;;;;9.38;2.30;;;;;;;;;;5114013;28;20475;-76
2022/01/28 10:15:56;;;;;;;15.57;2.28;;;;;;;;;;5114089;28;20047;-75
2022/01/28 10:18:22;;;;;;;12.32;2.00;;;;;;;;;;5096055;28;20193;-74
2022/01/28 10:20:48;;;;;;;12.27;2.28;;;;;;;;;;5113295;28;20122;-75
2022/01/28 10:23:14;;;;;;;13.75;1.85;;;;;;;;;;5113410;28;20127;-75
2022/01/28 10:25:42;;;;;;;11.85;1.83;;;;;;;;;;5113799;28;20082;-76
2022/01/28 10:28:12;;;;;;;11.93;2.60;;;;;;;;;;5096821;28;20040;-76
2022/01/28 10:30:40;;;;;;;13.70;2.10;;;;;;;;;;5113442;28;20040;-76
2022/01/28 10:33:14;;;;;;;15.48;2.08;;;;;;;;;;5094352;28;20036;-75
2022/01/28 10:35:48;;;;;;;21.98;2.20;;;;;;;;;;5096585;28;20035;-76
2022/01/28 10:38:26;;;;;;;18.73;2.13;;;;;;;;;;5113229;28;20104;-76
2022/01/28 10:41:12;;;;;;;15.48;2.08;;;;;;;;;;5096561;28;20082;-76
2022/01/28 10:43:50;;;;;;;12.10;1.75;;;;;;;;;;5113042;28;20036;-75
2022/01/28 10:46:23;;;;;;;8.68;1.70;;;;;;;;;;5113222;28;20047;-76
2022/01/28 10:48:49;;;;;;;9.07;1.65;;;;;;;;;;5113190;28;20488;-76
2022/01/28 10:51:16;;;;;;;16.00;2.80;;;;;;;;;;5113131;28;20039;-75
2022/01/28 10:53:42;;;;;;;11.38;2.42;;;;;;;;;;5096045;28;20035;-75
2022/01/28 10:56:14;;;;;;;9.77;1.92;;;;;;;;;;5095940;28;20093;-73
2022/01/28 10:58:40;;;;;;;10.02;1.80;;;;;;;;;;5112380;28;20089;-77
2022/01/28 11:01:13;;;;;;;15.63;1.95;;;;;;;;;;5112918;28;20031;-75
2022/01/28 11:03:40;;;;;;;21.58;2.90;;;;;;;;;;5113018;28;20043;-74
2022/01/28 11:06:06;;;;;;;8.63;1.60;;;;;;;;;;5095692;28;20039;-76
2022/01/28 11:08:34;;;;;;;15.02;2.10;;;;;;;;;;5112401;28;20663;-74
2022/01/28 11:11:01;;;;;;;15.13;2.38;;;;;;;;;;5112080;28;20043;-77
2022/01/28 11:13:28;;;;;;;11.55;1.83;;;;;;;;;;5095042;28;20032;-74
2022/01/28 11:15:54;;;;;;;15.95;2.22;;;;;;;;;;5095579;28;20035;-74
2022/01/28 11:18:20;;;;;;;17.33;1.92;;;;;;;;;;5095328;28;20039;-74
2022/01/28 11:20:51;;;;;;;12.85;2.33;;;;;;;;;;5095332;28;20064;-74
2022/01/28 11:23:32;;;;;;;11.52;1.77;;;;;;;;;;5095152;28;20046;-76
2022/01/28 11:26:13;;;;;;;15.07;2.40;;;;;;;;;;5095018;28;20085;-74
2022/01/28 11:28:41;;;;;;;13.20;2.80;;;;;;;;;;5095436;28;20070;-76
2022/01/28 11:31:08;;;;;;;12.52;2.13;;;;;;;;;;5113086;28;20081;-76
2022/01/28 11:33:44;;;;;;;19.95;2.08;;;;;;;;;;5095945;28;20126;-74
2022/01/28 11:36:10;;;;;;;11.00;1.85;;;;;;;;;;5112656;28;20035;-74
2022/01/28 11:38:37;;;;;;;12.90;1.98;;;;;;;;;;5095606;28;20075;-78
2022/01/28 11:41:07;;;;;;;9.48;1.30;;;;;;;;;;5111952;28;20403;-75
2022/01/28 11:43:34;;;;;;;15.70;2.10;;;;;;;;;;5094933;28;20039;-75
2022/01/28 11:46:07;;;;;;;12.82;1.77;;;;;;;;;;5092735;28;20040;-74
2022/01/28 11:48:52;;;;;;;12.43;2.90;;;;;;;;;;5108344;28;20043;-74
2022/01/28 11:51:35;;;;;;;19.27;2.92;;;;;;;;;;5090962;28;20051;-76
2022/01/28 11:54:02;;;;;;;11.25;2.70;;;;;;;;;;5091049;28;20074;-74
2022/01/28 11:56:29;;;;;;;9.88;2.33;;;;;;;;;;5108233;28;20150;-74
2022/01/28 11:59:03;;;;;;;9.43;1.90;;;;;;;;;;5090976;28;20126;-76
2022/01/28 12:01:35;;;;;;;9.20;2.15;;;;;;;;;;5091088;28;20047;-75
2022/01/28 12:04:20;;;;;;;10.93;2.00;;;;;;;;;;5091083;28;20044;-77
2022/01/28 12:06:46;;;;;;;16.88;2.55;;;;;;;;;;5108137;28;20043;-75
2022/01/28 12:09:13;;;;;;;12.23;2.67;;;;;;;;;;5090888;28;20464;-74
2022/01/28 12:11:42;;;;;;;12.35;1.98;;;;;;;;;;5108070;28;20047;-75
2022/01/28 12:14:12;;;;;;;13.38;2.92;;;;;;;;;;5091329;28;20457;-74
2022/01/28 12:16:42;;;;;;;9.88;2.83;;;;;;;;;;5107621;28;20051;-75
2022/01/28 12:19:15;;;;;;;24.55;2.33;;;;;;;;;;5090420;28;20063;-74
2022/01/28 12:22:01;;;;;;;12.80;2.75;;;;;;;;;;5090832;28;20043;-75
2022/01/28 12:24:27;;;;;;;15.05;2.17;;;;;;;;;;5090363;28;20053;-73
2022/01/28 12:26:56;;;;;;;13.25;2.17;;;;;;;;;;5090648;28;20771;-73
2022/01/28 12:29:33;;;;;;;16.38;2.75;;;;;;;;;;5107986;28;20047;-74
2022/01/28 12:32:00;;;;;;;10.20;2.65;;;;;;;;;;5090438;28;20031;-75
2022/01/28 12:34:26;;;;;;;14.75;2.58;;;;;;;;;;5107189;28;20380;-74
2022/01/28 12:36:52;;;;;;;12.65;1.98;;;;;;;;;;5107705;28;20324;-75
2022/01/28 12:39:32;;;;;;;17.27;2.05;;;;;;;;;;5069500;28;20056;-74
2022/01/28 12:42:41;;;;;;;11.77;1.73;;;;;;;;;;5046674;28;20040;-74
2022/01/28 12:44:52;;;;;;;16.02;2.40;;;;;;;;;;5044180;28;20043;-74
2022/01/28 12:47:19;;;;;;;17.13;2.38;;;;;;;;;;5046393;28;20048;-73
2022/01/28 12:49:46;;;;;;;15.15;2.45;;;;;;;;;;5046895;28;20053;-74
2022/01/28 12:52:12;;;;;;;13.48;2.50;;;;;;;;;;5046801;28;20128;-73
2022/01/28 12:54:38;;;;;;;8.45;1.92;;;;;;;;;;5046840;28;20476;-73
2022/01/28 12:57:05;;;;;;;19.10;3.67;;;;;;;;;;5046627;28;20156;-73
2022/01/28 12:59:31;;;;;;;16.15;3.30;;;;;;;;;;5046613;28;20413;-73
2022/01/28 13:01:57;;;;;;;18.08;2.63;;;;;;;;;;5046524;28;20041;-74
2022/01/28 13:04:36;;;;;;;13.75;2.50;;;;;;;;;;5046236;28;20520;-73
2022/01/28 13:10:00;;;;;;;12.77;2.15;;;;;;;;;;5034282;28;20056;-73
2022/01/28 13:12:27;;;;;;;13.13;2.63;;;;;;;;;;5046356;28;20075;-74
2022/01/28 13:14:54;;;;;;;19.50;2.53;;;;;;;;;;5046212;28;20223;-74
2022/01/28 13:17:21;;;;;;;12.05;2.00;;;;;;;;;;5046755;28;20376;-74
2022/01/28 13:19:57;;;;;;;13.30;2.15;;;;;;;;;;5046596;28;20633;-74
2022/01/28 13:22:24;;;;;;;17.20;2.20;;;;;;;;;;5046317;28;20047;-74
2022/01/28 13:24:52;;;;;;;13.35;1.98;;;;;;;;;;5063124;28;20077;-73
2022/01/28 13:27:18;;;;;;;9.93;2.60;;;;;;;;;;5029530;28;20049;-72
2022/01/28 13:29:48;;;;;;;15.35;3.25;;;;;;;;;;5063249;28;20045;-74
2022/01/28 13:32:15;;;;;;;12.88;1.80;;;;;;;;;;5033105;28;20052;-75
2022/01/28 13:34:47;;;;;;;10.43;2.00;;;;;;;;;;5030482;28;20131;-74
2022/01/28 13:37:14;;;;;;;10.57;2.00;;;;;;;;;;5026178;28;20504;-74
2022/01/28 13:39:42;;;;;;;10.77;2.30;;;;;;;;;;5048985;28;20041;-74
2022/01/28 13:42:13;;;;;;;12.57;1.80;;;;;;;;;;5033624;28;20044;-74
2022/01/28 13:44:42;;;;;;;8.95;1.90;;;;;;;;;;5033802;28;20041;-73
2022/01/28 13:47:09;;;;;;;14.50;2.88;;;;;;;;;;5033059;28;20049;-73
2022/01/28 13:49:37;;;;;;;12.00;1.83;;;;;;;;;;5033257;28;20128;-73
2022/01/28 13:52:07;;;;;;;9.55;2.45;;;;;;;;;;5033618;28;20558;-73
2022/01/28 13:54:33;;;;;;;11.10;1.88;;;;;;;;;;5053694;28;20045;-74
2022/01/28 13:57:04;;;;;;;10.20;2.35;;;;;;;;;;5053384;28;20044;-74
2022/01/28 13:59:30;;;;;;;;;;;;;;;;;;5053809;28;20519;-74
2022/01/28 14:01:59;;;;;;;14.10;2.83;;;;;;;;;;5036736;28;19916;-73
2022/01/28 14:04:44;;;;;;;6.88;1.75;;;;;;;;;;5053198;28;20048;-74
2022/01/28 14:07:14;;;;;;;12.73;1.92;;;;;;;;;;5053481;28;20044;-73
2022/01/28 14:09:43;;;;;;;11.95;1.98;;;;;;;;;;5053005;28;20053;-73
2022/01/28 14:12:12;;;;;;;5.70;1.90;;;;;;;;;;5053120;28;20048;-73
2022/01/28 14:14:47;;;;;;;11.57;1.90;;;;;;;;;;5049946;28;20053;-74
2022/01/28 14:17:14;;;;;;;8.27;1.25;;;;;;;;;;5049755;28;20056;-72
2022/01/28 14:19:41;;;;;;;9.45;1.92;;;;;;;;;;5049231;28;20456;-73
2022/01/28 14:22:08;;;;;;;8.57;1.45;;;;;;;;;;5049472;28;20051;-73
2022/01/28 14:24:35;;;;;;;12.18;2.03;;;;;;;;;;5049612;28;20520;-74
2022/01/28 14:30:04;;;;;;;10.77;2.20;;;;;;;;;;5049338;28;20385;-73
2022/01/28 14:32:24;;;;;;;11.23;1.70;;;;;;;;;;5048700;28;20220;-74
2022/01/28 14:34:51;;;;;;;11.60;1.90;;;;;;;;;;5049607;28;20067;-74
2022/01/28 14:37:18;;;;;;;11.65;2.42;;;;;;;;;;5050375;28;20032;-74
2022/01/28 14:39:44;;;;;;;3.40;1.48;;;;;;;;;;5052900;28;20044;-73
2022/01/28 14:42:11;;;;;;;14.50;2.28;;;;;;;;;;5052306;28;20052;-73
2022/01/28 14:44:39;;;;;;;9.15;1.88;;;;;;;;;;5052871;28;20041;-73
2022/01/28 14:47:05;;;;;;;10.18;2.30;;;;;;;;;;5052914;28;20056;-74
2022/01/28 14:49:32;;;;;;;11.82;2.35;;;;;;;;;;5052580;28;20401;-74
2022/01/28 14:52:01;;;;;;;12.85;1.50;;;;;;;;;;5052336;28;20459;-73
2022/01/28 14:54:28;;;;;;;18.80;1.98;;;;;;;;;;5052639;28;20048;-74
2022/01/28 14:56:54;;;;;;;10.65;1.80;;;;;;;;;;5052087;28;20130;-74
2022/01/28 14:59:20;;;;;;;12.20;1.65;;;;;;;;;;5032455;28;20048;-74
2022/01/28 15:01:46;;;;;;;6.25;1.40;;;;;;;;;;5026378;28;20044;-73
2022/01/28 15:04:12;;;;;;;15.80;2.53;;;;;;;;;;5052218;28;20382;-74
2022/01/28 15:06:39;;;;;;;7.90;1.60;;;;;;;;;;5051664;28;20049;-73
2022/01/28 15:09:05;;;;;;;15.30;1.90;;;;;;;;;;5031779;28;20053;-74
2022/01/28 15:11:43;;;;;;;14.50;2.20;;;;;;;;;;5032676;28;20049;-74
2022/01/28 15:14:10;;;;;;;10.60;1.55;;;;;;;;;;5032426;28;20047;-73
2022/01/28 15:16:36;;;;;;;9.43;1.50;;;;;;;;;;5015684;28;20120;-74
2022/01/28 15:19:02;;;;;;;16.17;2.30;;;;;;;;;;5015666;28;20390;-74
2022/01/28 15:21:28;;;;;;;7.75;1.63;;;;;;;;;;5031934;28;20041;-73
2022/01/28 15:23:54;;;;;;;13.30;1.88;;;;;;;;;;5015746;28;20045;-74
2022/01/28 15:26:20;;;;;;;19.13;1.70;;;;;;;;;;5015775;28;20041;-74
2022/01/28 15:29:00;;;;;;;13.35;1.90;;;;;;;;;;5031850;28;20095;-74
2022/01/28 15:36:59;;;;;;;7.55;1.98;;;;;;;;;;5021230;28;20080;-74
2022/01/28 15:39:25;;;;;;;10.27;1.40;;;;;;;;;;5015048;28;20132;-74
2022/01/28 15:41:52;;;;;;;7.57;1.35;;;;;;;;;;5015408;28;20038;-74
2022/01/28 15:44:18;;;;;;;8.85;1.73;;;;;;;;;;5015034;28;20456;-74
2022/01/28 15:46:44;;;;;;;12.68;1.75;;;;;;;;;;5015020;28;20045;-74
2022/01/28 15:49:12;;;;;;;8.40;1.42;;;;;;;;;;5014854;28;20378;-74
2022/01/28 15:51:37;;;;;;;11.00;1.40;;;;;;;;;;5031485;28;20129;-73
2022/01/28 15:54:03;;;;;;;8.27;1.60;;;;;;;;;;5014421;28;20084;-74
2022/01/28 15:56:29;;;;;;;7.63;1.33;;;;;;;;;;5014811;28;20045;-74
2022/01/28 15:58:55;;;;;;;7.13;1.10;;;;;;;;;;5031158;28;20037;-74
2022/01/28 16:01:24;;;;;;;8.13;2.53;;;;;;;;;;5031373;28;20470;-74
2022/01/28 16:03:50;;;;;;;11.63;1.77;;;;;;;;;;5014837;28;20037;-74